sensor_id;sensor_type;location;lat;lon;timestamp;pressure;altitude;pressure_sealevel;temperature
63158;BMP280;49381;49.338;8.794;2023-01-19T00:01:34;99285.72;;;0.44
63158;BMP280;49381;49.338;8.794;2023-01-19T00:03:34;99292.31;;;0.42
63158;BMP280;49381;49.338;8.794;2023-01-19T00:05:34;99300.63;;;0.43
63158;BMP280;49381;49.338;8.794;2023-01-19T00:07:36;99301.28;;;0.36
63158;BMP280;49381;49.338;8.794;2023-01-19T00:09:36;99305.47;;;0.38
63158;BMP280;49381;49.338;8.794;2023-01-19T00:11:37;99305.47;;;0.38
63158;BMP280;49381;49.338;8.794;2023-01-19T00:13:38;99306.28;;;0.37
63158;BMP280;49381;49.338;8.794;2023-01-19T00:15:38;99306.16;;;0.33
63158;BMP280;49381;49.338;8.794;2023-01-19T00:17:38;99309.44;;;0.32
63158;BMP280;49381;49.338;8.794;2023-01-19T00:19:39;99302.78;;;0.31
63158;BMP280;49381;49.338;8.794;2023-01-19T00:21:39;99304.63;;;0.38
63158;BMP280;49381;49.338;8.794;2023-01-19T00:23:41;99297.34;;;0.44
63158;BMP280;49381;49.338;8.794;2023-01-19T00:25:41;99303.13;;;0.43
63158;BMP280;49381;49.338;8.794;2023-01-19T00:27:42;99308.97;;;0.43
63158;BMP280;49381;49.338;8.794;2023-01-19T00:29:42;99308.91;;;0.42
63158;BMP280;49381;49.338;8.794;2023-01-19T00:31:42;99302.31;;;0.44
63158;BMP280;49381;49.338;8.794;2023-01-19T00:33:43;99309.72;;;0.41
63158;BMP280;49381;49.338;8.794;2023-01-19T00:35:43;99313.00;;;0.40
63158;BMP280;49381;49.338;8.794;2023-01-19T00:37:43;99315.84;;;0.50
63158;BMP280;49381;49.338;8.794;2023-01-19T00:39:45;99311.72;;;0.52
63158;BMP280;49381;49.338;8.794;2023-01-19T00:41:45;99318.53;;;0.57
63158;BMP280;49381;49.338;8.794;2023-01-19T00:43:45;99314.31;;;0.55
63158;BMP280;49381;49.338;8.794;2023-01-19T00:45:46;99317.81;;;0.61
63158;BMP280;49381;49.338;8.794;2023-01-19T00:47:47;99312.69;;;0.57
63158;BMP280;49381;49.338;8.794;2023-01-19T00:49:48;99315.34;;;0.61
63158;BMP280;49381;49.338;8.794;2023-01-19T00:51:48;99312.06;;;0.64
63158;BMP280;49381;49.338;8.794;2023-01-19T00:53:49;99317.78;;;0.60
63158;BMP280;49381;49.338;8.794;2023-01-19T00:55:50;99322.09;;;0.65
63158;BMP280;49381;49.338;8.794;2023-01-19T00:57:51;99320.34;;;0.63
63158;BMP280;49381;49.338;8.794;2023-01-19T00:59:51;99327.00;;;0.62
63158;BMP280;49381;49.338;8.794;2023-01-19T01:01:51;99323.50;;;0.57
63158;BMP280;49381;49.338;8.794;2023-01-19T01:03:51;99316.03;;;0.57
63158;BMP280;49381;49.338;8.794;2023-01-19T01:05:52;99323.66;;;0.62
63158;BMP280;49381;49.338;8.794;2023-01-19T01:07:52;99313.53;;;0.57
63158;BMP280;49381;49.338;8.794;2023-01-19T01:09:52;99322.72;;;0.58
63158;BMP280;49381;49.338;8.794;2023-01-19T01:11:54;99313.38;;;0.51
63158;BMP280;49381;49.338;8.794;2023-01-19T01:13:55;99328.28;;;0.50
63158;BMP280;49381;49.338;8.794;2023-01-19T01:15:56;99323.22;;;0.47
63158;BMP280;49381;49.338;8.794;2023-01-19T01:17:57;99339.84;;;0.48
63158;BMP280;49381;49.338;8.794;2023-01-19T01:19:57;99335.19;;;0.58
63158;BMP280;49381;49.338;8.794;2023-01-19T01:21:57;99337.84;;;0.64
63158;BMP280;49381;49.338;8.794;2023-01-19T01:23:58;99331.97;;;0.62
63158;BMP280;49381;49.338;8.794;2023-01-19T01:25:58;99339.28;;;0.56
63158;BMP280;49381;49.338;8.794;2023-01-19T01:28:00;99338.38;;;0.54
63158;BMP280;49381;49.338;8.794;2023-01-19T01:30:00;99336.63;;;0.50
63158;BMP280;49381;49.338;8.794;2023-01-19T01:32:02;99344.13;;;0.52
63158;BMP280;49381;49.338;8.794;2023-01-19T01:34:02;99344.88;;;0.49
63158;BMP280;49381;49.338;8.794;2023-01-19T01:36:04;99343.78;;;0.40
63158;BMP280;49381;49.338;8.794;2023-01-19T01:38:04;99353.94;;;0.46
63158;BMP280;49381;49.338;8.794;2023-01-19T01:40:06;99340.50;;;0.43
63158;BMP280;49381;49.338;8.794;2023-01-19T01:42:13;99338.78;;;0.40
63158;BMP280;49381;49.338;8.794;2023-01-19T01:44:49;99345.22;;;0.34
63158;BMP280;49381;49.338;8.794;2023-01-19T01:46:50;99336.06;;;0.33
63158;BMP280;49381;49.338;8.794;2023-01-19T01:48:54;99340.97;;;0.30
63158;BMP280;49381;49.338;8.794;2023-01-19T01:50:58;99337.81;;;0.35
63158;BMP280;49381;49.338;8.794;2023-01-19T01:53:01;99343.63;;;0.36
63158;BMP280;49381;49.338;8.794;2023-01-19T01:55:04;99350.00;;;0.26
63158;BMP280;49381;49.338;8.794;2023-01-19T01:57:06;99347.88;;;0.40
63158;BMP280;49381;49.338;8.794;2023-01-19T01:59:10;99338.31;;;0.51
63158;BMP280;49381;49.338;8.794;2023-01-19T02:01:13;99344.28;;;0.56
63158;BMP280;49381;49.338;8.794;2023-01-19T02:03:13;99347.75;;;0.61
63158;BMP280;49381;49.338;8.794;2023-01-19T02:05:17;99340.97;;;0.57
63158;BMP280;49381;49.338;8.794;2023-01-19T02:07:20;99340.97;;;0.57
63158;BMP280;49381;49.338;8.794;2023-01-19T02:09:24;99335.00;;;0.52
63158;BMP280;49381;49.338;8.794;2023-01-19T02:11:27;99342.50;;;0.54
63158;BMP280;49381;49.338;8.794;2023-01-19T02:13:29;99340.84;;;0.53
63158;BMP280;49381;49.338;8.794;2023-01-19T02:15:29;99343.44;;;0.56
63158;BMP280;49381;49.338;8.794;2023-01-19T02:17:31;99352.19;;;0.44
63158;BMP280;49381;49.338;8.794;2023-01-19T02:19:35;99342.72;;;0.34
63158;BMP280;49381;49.338;8.794;2023-01-19T02:21:41;99349.47;;;0.36
63158;BMP280;49381;49.338;8.794;2023-01-19T02:23:48;99344.00;;;0.48
63158;BMP280;49381;49.338;8.794;2023-01-19T02:25:49;99338.78;;;0.40
63158;BMP280;49381;49.338;8.794;2023-01-19T02:27:50;99339.81;;;0.47
63158;BMP280;49381;49.338;8.794;2023-01-19T02:29:51;99337.31;;;0.47
63158;BMP280;49381;49.338;8.794;2023-01-19T02:31:51;99339.00;;;0.48
63158;BMP280;49381;49.338;8.794;2023-01-19T02:33:52;99334.97;;;0.51
63158;BMP280;49381;49.338;8.794;2023-01-19T02:35:53;99331.66;;;0.52
63158;BMP280;49381;49.338;8.794;2023-01-19T02:37:55;99330.03;;;0.52
63158;BMP280;49381;49.338;8.794;2023-01-19T02:40:00;99332.53;;;0.54
63158;BMP280;49381;49.338;8.794;2023-01-19T02:42:04;99335.81;;;0.51
63158;BMP280;49381;49.338;8.794;2023-01-19T02:44:05;99338.03;;;0.43
63158;BMP280;49381;49.338;8.794;2023-01-19T02:46:07;99340.31;;;0.35
63158;BMP280;49381;49.338;8.794;2023-01-19T02:48:07;99339.72;;;0.44
63158;BMP280;49381;49.338;8.794;2023-01-19T02:50:39;99347.13;;;0.41
63158;BMP280;49381;49.338;8.794;2023-01-19T02:52:40;99349.50;;;0.38
63158;BMP280;49381;49.338;8.794;2023-01-19T02:54:48;99340.41;;;0.40
63158;BMP280;49381;49.338;8.794;2023-01-19T02:57:09;99343.19;;;0.49
63158;BMP280;49381;49.338;8.794;2023-01-19T02:59:21;99339.31;;;0.58
63158;BMP280;49381;49.338;8.794;2023-01-19T03:01:26;99338.75;;;0.66
63158;BMP280;49381;49.338;8.794;2023-01-19T03:03:32;99334.44;;;0.61
63158;BMP280;49381;49.338;8.794;2023-01-19T03:05:44;99336.16;;;0.63
63158;BMP280;49381;49.338;8.794;2023-01-19T03:07:56;99336.41;;;0.71
63158;BMP280;49381;49.338;8.794;2023-01-19T03:10:03;99332.06;;;0.65
63158;BMP280;49381;49.338;8.794;2023-01-19T03:12:08;99333.81;;;0.68
63158;BMP280;49381;49.338;8.794;2023-01-19T03:14:18;99331.44;;;0.72
63158;BMP280;49381;49.338;8.794;2023-01-19T03:16:21;99331.28;;;0.66
63158;BMP280;49381;49.338;8.794;2023-01-19T03:18:24;99333.72;;;0.65
63158;BMP280;49381;49.338;8.794;2023-01-19T03:20:26;99326.25;;;0.65
63158;BMP280;49381;49.338;8.794;2023-01-19T03:22:28;99327.94;;;0.66
63158;BMP280;49381;49.338;8.794;2023-01-19T03:24:31;99332.41;;;0.77
63158;BMP280;49381;49.338;8.794;2023-01-19T03:26:36;99333.25;;;0.77
63158;BMP280;49381;49.338;8.794;2023-01-19T03:28:40;99334.06;;;0.76
63158;BMP280;49381;49.338;8.794;2023-01-19T03:30:43;99329.13;;;0.78
63158;BMP280;49381;49.338;8.794;2023-01-19T03:32:49;99336.47;;;0.74
63158;BMP280;49381;49.338;8.794;2023-01-19T03:34:52;99328.09;;;0.72
63158;BMP280;49381;49.338;8.794;2023-01-19T03:36:58;99329.72;;;0.70
63158;BMP280;49381;49.338;8.794;2023-01-19T03:39:01;99332.84;;;0.64
63158;BMP280;49381;49.338;8.794;2023-01-19T03:41:05;99337.06;;;0.65
63158;BMP280;49381;49.338;8.794;2023-01-19T03:43:07;99333.75;;;0.66
63158;BMP280;49381;49.338;8.794;2023-01-19T03:45:11;99332.16;;;0.68
63158;BMP280;49381;49.338;8.794;2023-01-19T03:47:13;99339.63;;;0.68
63158;BMP280;49381;49.338;8.794;2023-01-19T03:49:14;99349.00;;;0.75
63158;BMP280;49381;49.338;8.794;2023-01-19T03:51:15;99354.00;;;0.75
63158;BMP280;49381;49.338;8.794;2023-01-19T03:53:19;99354.97;;;0.80
63158;BMP280;49381;49.338;8.794;2023-01-19T03:55:19;99361.72;;;0.84
63158;BMP280;49381;49.338;8.794;2023-01-19T03:57:20;99360.25;;;0.90
63158;BMP280;49381;49.338;8.794;2023-01-19T03:59:20;99369.59;;;0.97
63158;BMP280;49381;49.338;8.794;2023-01-19T04:01:22;99362.22;;;1.00
63158;BMP280;49381;49.338;8.794;2023-01-19T04:03:22;99363.09;;;1.02
63158;BMP280;49381;49.338;8.794;2023-01-19T04:05:23;99363.13;;;1.03
63158;BMP280;49381;49.338;8.794;2023-01-19T04:07:23;99363.13;;;1.03
63158;BMP280;49381;49.338;8.794;2023-01-19T04:09:24;99368.09;;;1.03
63158;BMP280;49381;49.338;8.794;2023-01-19T04:11:24;99358.13;;;1.03
63158;BMP280;49381;49.338;8.794;2023-01-19T04:13:24;99365.69;;;1.05
63158;BMP280;49381;49.338;8.794;2023-01-19T04:15:25;99369.81;;;1.04
63158;BMP280;49381;49.338;8.794;2023-01-19T04:17:27;99355.59;;;1.02
63158;BMP280;49381;49.338;8.794;2023-01-19T04:19:28;99363.13;;;1.03
63158;BMP280;49381;49.338;8.794;2023-01-19T04:21:28;99364.75;;;1.01
63158;BMP280;49381;49.338;8.794;2023-01-19T04:23:29;99367.22;;;1.01
63158;BMP280;49381;49.338;8.794;2023-01-19T04:25:29;99370.59;;;1.03
63158;BMP280;49381;49.338;8.794;2023-01-19T04:27:30;99368.88;;;1.01
63158;BMP280;49381;49.338;8.794;2023-01-19T04:29:30;99367.22;;;1.01
63158;BMP280;49381;49.338;8.794;2023-01-19T04:31:30;99360.50;;;0.99
63158;BMP280;49381;49.338;8.794;2023-01-19T04:33:32;99359.91;;;1.07
63158;BMP280;49381;49.338;8.794;2023-01-19T04:35:33;99359.22;;;1.13
63158;BMP280;49381;49.338;8.794;2023-01-19T04:37:33;99357.69;;;1.16
63158;BMP280;49381;49.338;8.794;2023-01-19T04:39:33;99356.03;;;1.17
63158;BMP280;49381;49.338;8.794;2023-01-19T04:41:34;99365.91;;;1.14
63158;BMP280;49381;49.338;8.794;2023-01-19T04:43:34;99365.88;;;1.12
63158;BMP280;49381;49.338;8.794;2023-01-19T04:45:34;99362.53;;;1.12
63158;BMP280;49381;49.338;8.794;2023-01-19T04:47:35;99356.78;;;1.14
63158;BMP280;49381;49.338;8.794;2023-01-19T04:49:36;99359.41;;;1.19
63158;BMP280;49381;49.338;8.794;2023-01-19T04:51:37;99361.97;;;1.20
63158;BMP280;49381;49.338;8.794;2023-01-19T04:53:37;99368.69;;;1.24
63158;BMP280;49381;49.338;8.794;2023-01-19T04:55:37;99377.16;;;1.29
63158;BMP280;49381;49.338;8.794;2023-01-19T04:57:38;99369.75;;;1.32
63158;BMP280;49381;49.338;8.794;2023-01-19T04:59:38;99367.25;;;1.32
63158;BMP280;49381;49.338;8.794;2023-01-19T05:01:38;99373.09;;;1.32
63158;BMP280;49381;49.338;8.794;2023-01-19T05:03:39;99374.91;;;1.38
63158;BMP280;49381;49.338;8.794;2023-01-19T05:05:41;99369.13;;;1.39
63158;BMP280;49381;49.338;8.794;2023-01-19T05:07:42;99369.19;;;1.40
63158;BMP280;49381;49.338;8.794;2023-01-19T05:09:42;99372.41;;;1.38
63158;BMP280;49381;49.338;8.794;2023-01-19T05:11:42;99379.03;;;1.36
63158;BMP280;49381;49.338;8.794;2023-01-19T05:13:42;99374.03;;;1.36
63158;BMP280;49381;49.338;8.794;2023-01-19T05:15:43;99374.09;;;1.39
63158;BMP280;49381;49.338;8.794;2023-01-19T05:17:43;99378.19;;;1.35
63158;BMP280;49381;49.338;8.794;2023-01-19T05:19:43;99385.72;;;1.37
63158;BMP280;49381;49.338;8.794;2023-01-19T05:21:45;99380.06;;;1.44
63158;BMP280;49381;49.338;8.794;2023-01-19T05:23:45;99385.91;;;1.44
63158;BMP280;49381;49.338;8.794;2023-01-19T05:25:46;99386.81;;;1.46
63158;BMP280;49381;49.338;8.794;2023-01-19T05:27:46;99387.66;;;1.47
63158;BMP280;49381;49.338;8.794;2023-01-19T05:29:46;99391.13;;;1.51
63158;BMP280;49381;49.338;8.794;2023-01-19T05:31:47;99391.97;;;1.52
63158;BMP280;49381;49.338;8.794;2023-01-19T05:33:47;99392.47;;;1.41
63158;BMP280;49381;49.338;8.794;2023-01-19T05:35:48;99406.78;;;1.46
63158;BMP280;49381;49.338;8.794;2023-01-19T05:37:50;99405.94;;;1.46
63158;BMP280;49381;49.338;8.794;2023-01-19T05:39:51;99406.00;;;1.49
63158;BMP280;49381;49.338;8.794;2023-01-19T05:41:51;99397.63;;;1.47
63158;BMP280;49381;49.338;8.794;2023-01-19T05:43:52;99402.53;;;1.44
63158;BMP280;49381;49.338;8.794;2023-01-19T05:45:52;99402.47;;;1.41
63158;BMP280;49381;49.338;8.794;2023-01-19T05:47:53;99393.47;;;1.46
63158;BMP280;49381;49.338;8.794;2023-01-19T05:49:53;99391.84;;;1.48
63158;BMP280;49381;49.338;8.794;2023-01-19T05:51:53;99391.94;;;1.50
63158;BMP280;49381;49.338;8.794;2023-01-19T05:53:55;99401.19;;;1.54
63158;BMP280;49381;49.338;8.794;2023-01-19T05:56:05;99400.41;;;1.57
63158;BMP280;49381;49.338;8.794;2023-01-19T05:58:06;99397.88;;;1.55
63158;BMP280;49381;49.338;8.794;2023-01-19T06:00:08;99401.34;;;1.60
63158;BMP280;49381;49.338;8.794;2023-01-19T06:02:12;99399.72;;;1.62
63158;BMP280;49381;49.338;8.794;2023-01-19T06:04:13;99394.84;;;1.65
63158;BMP280;49381;49.338;8.794;2023-01-19T06:06:14;99389.91;;;1.68
63158;BMP280;49381;49.338;8.794;2023-01-19T06:08:14;99400.06;;;1.74
63158;BMP280;49381;49.338;8.794;2023-01-19T06:10:17;99387.63;;;1.77
63158;BMP280;49381;49.338;8.794;2023-01-19T06:12:22;99390.13;;;1.77
63158;BMP280;49381;49.338;8.794;2023-01-19T06:14:29;99390.13;;;1.77
63158;BMP280;49381;49.338;8.794;2023-01-19T06:17:50;99398.59;;;1.82
63158;BMP280;49381;49.338;8.794;2023-01-19T06:19:10;99402.75;;;1.81
63158;BMP280;49381;49.338;8.794;2023-01-19T06:21:11;99411.97;;;1.84
63158;BMP280;49381;49.338;8.794;2023-01-19T06:23:28;99411.31;;;1.89
63158;BMP280;49381;49.338;8.794;2023-01-19T06:25:31;99417.97;;;1.90
63158;BMP280;49381;49.338;8.794;2023-01-19T06:27:34;99419.78;;;1.96
63158;BMP280;49381;49.338;8.794;2023-01-19T06:29:36;99408.81;;;1.89
63158;BMP280;49381;49.338;8.794;2023-01-19T06:34:08;99413.00;;;1.92
63158;BMP280;49381;49.338;8.794;2023-01-19T06:36:12;99408.03;;;1.93
63158;BMP280;49381;49.338;8.794;2023-01-19T06:38:15;99416.38;;;1.94
63158;BMP280;49381;49.338;8.794;2023-01-19T06:40:19;99427.44;;;2.01
63158;BMP280;49381;49.338;8.794;2023-01-19T06:42:21;99429.13;;;2.02
63158;BMP280;49381;49.338;8.794;2023-01-19T06:44:41;99429.28;;;2.08
63158;BMP280;49381;49.338;8.794;2023-01-19T06:46:49;99419.38;;;2.13
63158;BMP280;49381;49.338;8.794;2023-01-19T06:48:57;99412.56;;;2.06
63158;BMP280;49381;49.338;8.794;2023-01-19T06:51:01;99426.56;;;2.00
63158;BMP280;49381;49.338;8.794;2023-01-19T06:53:16;99421.72;;;2.05
63158;BMP280;49381;49.338;8.794;2023-01-19T06:55:18;99421.00;;;2.09
63158;BMP280;49381;49.338;8.794;2023-01-19T06:57:20;99437.59;;;2.07
63158;BMP280;49381;49.338;8.794;2023-01-19T06:59:21;99435.13;;;2.09
63158;BMP280;49381;49.338;8.794;2023-01-19T07:01:30;99443.31;;;2.03
63158;BMP280;49381;49.338;8.794;2023-01-19T07:03:33;99446.84;;;2.11
63158;BMP280;49381;49.338;8.794;2023-01-19T07:05:43;99447.72;;;2.13
63158;BMP280;49381;49.338;8.794;2023-01-19T07:07:50;99441.19;;;2.18
63158;BMP280;49381;49.338;8.794;2023-01-19T07:09:56;99439.66;;;2.23
63158;BMP280;49381;49.338;8.794;2023-01-19T07:14:42;99444.81;;;2.29
63158;BMP280;49381;49.338;8.794;2023-01-19T07:17:12;99450.72;;;2.32
63158;BMP280;49381;49.338;8.794;2023-01-19T07:19:11;99439.59;;;2.20
63158;BMP280;49381;49.338;8.794;2023-01-19T07:21:17;99452.91;;;2.19
63158;BMP280;49381;49.338;8.794;2023-01-19T07:23:40;99444.72;;;2.26
63158;BMP280;49381;49.338;8.794;2023-01-19T07:26:08;99441.38;;;2.24
63158;BMP280;49381;49.338;8.794;2023-01-19T07:28:14;99434.66;;;2.23
63158;BMP280;49381;49.338;8.794;2023-01-19T07:30:21;99433.78;;;2.21
63158;BMP280;49381;49.338;8.794;2023-01-19T07:32:26;99444.72;;;2.26
63158;BMP280;49381;49.338;8.794;2023-01-19T07:35:01;99441.50;;;2.30
63158;BMP280;49381;49.338;8.794;2023-01-19T07:39:03;99442.31;;;2.29
63158;BMP280;49381;49.338;8.794;2023-01-19T07:42:39;99452.34;;;2.30
63158;BMP280;49381;49.338;8.794;2023-01-19T07:44:48;99445.03;;;2.38
63158;BMP280;49381;49.338;8.794;2023-01-19T07:47:10;99451.69;;;2.37
63158;BMP280;49381;49.338;8.794;2023-01-19T07:49:30;99455.09;;;2.41
63158;BMP280;49381;49.338;8.794;2023-01-19T07:51:39;99455.88;;;2.38
63158;BMP280;49381;49.338;8.794;2023-01-19T07:54:08;99451.78;;;2.42
63158;BMP280;49381;49.338;8.794;2023-01-19T07:57:58;99461.63;;;2.34
63158;BMP280;49381;49.338;8.794;2023-01-19T07:58:58;99460.13;;;2.41
63158;BMP280;49381;49.338;8.794;2023-01-19T08:01:14;99458.34;;;2.37
63158;BMP280;49381;49.338;8.794;2023-01-19T08:06:09;99464.41;;;2.46
63158;BMP280;49381;49.338;8.794;2023-01-19T08:08:37;99466.88;;;2.45
63158;BMP280;49381;49.338;8.794;2023-01-19T08:11:01;99472.91;;;2.52
63158;BMP280;49381;49.338;8.794;2023-01-19T08:15:46;99472.38;;;2.64
63158;BMP280;49381;49.338;8.794;2023-01-19T08:18:20;99474.78;;;2.61
63158;BMP280;49381;49.338;8.794;2023-01-19T08:21:12;99476.41;;;2.59
63158;BMP280;49381;49.338;8.794;2023-01-19T08:22:59;99480.63;;;2.61
63158;BMP280;49381;49.338;8.794;2023-01-19T08:25:25;99478.09;;;2.60
63158;BMP280;49381;49.338;8.794;2023-01-19T08:28:31;99482.31;;;2.62
63158;BMP280;49381;49.338;8.794;2023-01-19T08:30:55;99480.75;;;2.66
63158;BMP280;49381;49.338;8.794;2023-01-19T08:33:02;99482.31;;;2.62
63158;BMP280;49381;49.338;8.794;2023-01-19T08:40:07;99480.97;;;2.75
63158;BMP280;49381;49.338;8.794;2023-01-19T08:42:33;99486.13;;;2.82
63158;BMP280;49381;49.338;8.794;2023-01-19T08:45:19;99484.53;;;2.84
63158;BMP280;49381;49.338;8.794;2023-01-19T08:48:33;99483.84;;;2.91
63158;BMP280;49381;49.338;8.794;2023-01-19T08:50:44;99488.97;;;2.95
63158;BMP280;49381;49.338;8.794;2023-01-19T08:58:39;99491.09;;;2.80
63158;BMP280;49381;49.338;8.794;2023-01-19T09:01:10;99491.13;;;2.82
63158;BMP280;49381;49.338;8.794;2023-01-19T09:03:30;99491.22;;;2.85
63158;BMP280;49381;49.338;8.794;2023-01-19T09:29:23;99491.63;;;3.02
63158;BMP280;49381;49.338;8.794;2023-01-19T09:31:43;99486.69;;;3.05
63158;BMP280;49381;49.338;8.794;2023-01-19T09:34:09;99488.34;;;3.03
63158;BMP280;49381;49.338;8.794;2023-01-19T09:38:51;99489.88;;;2.99
63158;BMP280;49381;49.338;8.794;2023-01-19T09:41:48;99491.34;;;2.91
63158;BMP280;49381;49.338;8.794;2023-01-19T09:46:15;99493.38;;;3.06
63158;BMP280;49381;49.338;8.794;2023-01-19T09:48:47;99487.63;;;3.10
63158;BMP280;49381;49.338;8.794;2023-01-19T09:50:52;99492.66;;;3.12
63158;BMP280;49381;49.338;8.794;2023-01-19T09:53:00;99492.75;;;3.15
63158;BMP280;49381;49.338;8.794;2023-01-19T09:55:34;99487.88;;;3.21
63158;BMP280;49381;49.338;8.794;2023-01-19T09:58:07;99498.00;;;3.25
63158;BMP280;49381;49.338;8.794;2023-01-19T10:02:29;99497.88;;;3.21
63158;BMP280;49381;49.338;8.794;2023-01-19T10:04:38;99492.97;;;3.25
63158;BMP280;49381;49.338;8.794;2023-01-19T10:06:39;99496.25;;;3.23
63158;BMP280;49381;49.338;8.794;2023-01-19T10:08:46;99499.81;;;3.32
63158;BMP280;49381;49.338;8.794;2023-01-19T10:11:07;99495.50;;;3.25
63158;BMP280;49381;49.338;8.794;2023-01-19T10:13:45;99489.44;;;3.16
63158;BMP280;49381;49.338;8.794;2023-01-19T10:15:54;99502.06;;;3.20
63158;BMP280;49381;49.338;8.794;2023-01-19T10:18:12;99492.84;;;3.19
63158;BMP280;49381;49.338;8.794;2023-01-19T10:22:36;99505.28;;;3.16
63158;BMP280;49381;49.338;8.794;2023-01-19T10:24:41;99499.59;;;3.23
63158;BMP280;49381;49.338;8.794;2023-01-19T10:26:49;99498.84;;;3.27
63158;BMP280;49381;49.338;8.794;2023-01-19T10:28:53;99500.53;;;3.28
63158;BMP280;49381;49.338;8.794;2023-01-19T10:30:56;99496.47;;;3.33
63158;BMP280;49381;49.338;8.794;2023-01-19T10:33:05;99506.56;;;3.34
63158;BMP280;49381;49.338;8.794;2023-01-19T10:35:17;99507.41;;;3.36
63158;BMP280;49381;49.338;8.794;2023-01-19T10:37:44;99500.72;;;3.35
63158;BMP280;49381;49.338;8.794;2023-01-19T10:39:51;99501.47;;;3.31
63158;BMP280;49381;49.338;8.794;2023-01-19T10:41:57;99500.59;;;3.29
63158;BMP280;49381;49.338;8.794;2023-01-19T10:44:03;99490.28;;;3.16
63158;BMP280;49381;49.338;8.794;2023-01-19T10:46:07;99492.16;;;3.26
63158;BMP280;49381;49.338;8.794;2023-01-19T10:48:13;99498.13;;;3.31
63158;BMP280;49381;49.338;8.794;2023-01-19T10:50:27;99507.19;;;3.26
63158;BMP280;49381;49.338;8.794;2023-01-19T10:52:30;99513.84;;;3.24
63158;BMP280;49381;49.338;8.794;2023-01-19T10:54:36;99513.03;;;3.26
63158;BMP280;49381;49.338;8.794;2023-01-19T10:56:50;99510.56;;;3.28
63158;BMP280;49381;49.338;8.794;2023-01-19T10:58:51;99507.41;;;3.36
63158;BMP280;49381;49.338;8.794;2023-01-19T11:00:51;99512.28;;;3.29
63158;BMP280;49381;49.338;8.794;2023-01-19T11:02:52;99513.25;;;3.35
63158;BMP280;49381;49.338;8.794;2023-01-19T11:04:54;99519.84;;;3.32
63158;BMP280;49381;49.338;8.794;2023-01-19T11:07:12;99512.19;;;3.26
63158;BMP280;49381;49.338;8.794;2023-01-19T11:09:18;99514.22;;;3.42
63158;BMP280;49381;49.338;8.794;2023-01-19T11:11:39;99514.16;;;3.39
63158;BMP280;49381;49.338;8.794;2023-01-19T11:13:43;99510.22;;;3.50
63158;BMP280;49381;49.338;8.794;2023-01-19T11:15:47;99520.25;;;3.50
63158;BMP280;49381;49.338;8.794;2023-01-19T11:17:51;99521.19;;;3.54
63158;BMP280;49381;49.338;8.794;2023-01-19T11:19:55;99519.19;;;3.39
63158;BMP280;49381;49.338;8.794;2023-01-19T11:22:17;99514.59;;;3.58
63158;BMP280;49381;49.338;8.794;2023-01-19T11:24:25;99521.31;;;3.62
63158;BMP280;49381;49.338;8.794;2023-01-19T11:26:28;99514.53;;;3.56
63158;BMP280;49381;49.338;8.794;2023-01-19T11:28:32;99512.97;;;3.61
63158;BMP280;49381;49.338;8.794;2023-01-19T11:30:33;99517.97;;;3.61
63158;BMP280;49381;49.338;8.794;2023-01-19T11:32:34;99509.53;;;3.56
63158;BMP280;49381;49.338;8.794;2023-01-19T11:34:36;99513.88;;;3.63
63158;BMP280;49381;49.338;8.794;2023-01-19T11:36:36;99512.84;;;3.55
63158;BMP280;49381;49.338;8.794;2023-01-19T11:38:42;99505.31;;;3.54
63158;BMP280;49381;49.338;8.794;2023-01-19T11:40:50;99502.72;;;3.50
63158;BMP280;49381;49.338;8.794;2023-01-19T11:42:51;99502.94;;;3.61
63158;BMP280;49381;49.338;8.794;2023-01-19T11:44:58;99500.53;;;3.66
63158;BMP280;49381;49.338;8.794;2023-01-19T11:47:02;99493.00;;;3.64
63158;BMP280;49381;49.338;8.794;2023-01-19T11:49:10;99500.25;;;3.52
63158;BMP280;49381;49.338;8.794;2023-01-19T11:51:15;99489.56;;;3.61
63158;BMP280;49381;49.338;8.794;2023-01-19T11:53:19;99487.25;;;3.68
63158;BMP280;49381;49.338;8.794;2023-01-19T11:55:32;99494.06;;;3.76
63158;BMP280;49381;49.338;8.794;2023-01-19T11:57:35;99479.88;;;3.77
63158;BMP280;49381;49.338;8.794;2023-01-19T11:59:36;99478.41;;;3.86
63158;BMP280;49381;49.338;8.794;2023-01-19T12:01:41;99477.56;;;3.86
63158;BMP280;49381;49.338;8.794;2023-01-19T12:03:50;99477.97;;;3.64
63158;BMP280;49381;49.338;8.794;2023-01-19T12:05:55;99483.19;;;3.76
63158;BMP280;49381;49.338;8.794;2023-01-19T12:07:59;99481.50;;;3.74
63158;BMP280;49381;49.338;8.794;2023-01-19T12:10:06;99479.25;;;3.87
63158;BMP280;49381;49.338;8.794;2023-01-19T12:12:23;99475.22;;;3.95
63158;BMP280;49381;49.338;8.794;2023-01-19T12:14:30;99477.09;;;4.04
63158;BMP280;49381;49.338;8.794;2023-01-19T12:16:36;99477.94;;;4.06
63158;BMP280;49381;49.338;8.794;2023-01-19T12:18:40;99472.16;;;4.09
63158;BMP280;49381;49.338;8.794;2023-01-19T12:20:45;99475.44;;;4.06
63158;BMP280;49381;49.338;8.794;2023-01-19T12:22:51;99467.09;;;4.07
63158;BMP280;49381;49.338;8.794;2023-01-19T12:24:56;99472.16;;;4.10
63158;BMP280;49381;49.338;8.794;2023-01-19T12:27:03;99466.31;;;4.08
63158;BMP280;49381;49.338;8.794;2023-01-19T12:29:20;99469.47;;;4.00
63158;BMP280;49381;49.338;8.794;2023-01-19T12:31:22;99469.47;;;4.00
63158;BMP280;49381;49.338;8.794;2023-01-19T12:33:31;99465.41;;;4.06
63158;BMP280;49381;49.338;8.794;2023-01-19T12:36:00;99451.28;;;4.11
63158;BMP280;49381;49.338;8.794;2023-01-19T12:38:28;99464.47;;;4.01
63158;BMP280;49381;49.338;8.794;2023-01-19T12:40:34;99458.72;;;4.05
63158;BMP280;49381;49.338;8.794;2023-01-19T12:42:38;99470.38;;;4.03
63158;BMP280;49381;49.338;8.794;2023-01-19T12:44:53;99457.84;;;4.03
63158;BMP280;49381;49.338;8.794;2023-01-19T12:47:19;99456.31;;;4.11
63158;BMP280;49381;49.338;8.794;2023-01-19T12:49:27;99457.19;;;4.13
63158;BMP280;49381;49.338;8.794;2023-01-19T12:51:28;99454.56;;;4.07
63158;BMP280;49381;49.338;8.794;2023-01-19T12:53:32;99463.81;;;4.10
63158;BMP280;49381;49.338;8.794;2023-01-19T12:55:36;99461.25;;;4.07
63158;BMP280;49381;49.338;8.794;2023-01-19T12:57:39;99454.72;;;4.15
63158;BMP280;49381;49.338;8.794;2023-01-19T12:59:42;99450.44;;;4.09
63158;BMP280;49381;49.338;8.794;2023-01-19T13:04:38;99443.94;;;4.20
63158;BMP280;49381;49.338;8.794;2023-01-19T13:07:08;99440.75;;;4.28
63158;BMP280;49381;49.338;8.794;2023-01-19T13:09:32;99444.25;;;4.38
63158;BMP280;49381;49.338;8.794;2023-01-19T13:14:35;99447.59;;;4.38
63158;BMP280;49381;49.338;8.794;2023-01-19T13:17:32;99450.22;;;4.46
63158;BMP280;49381;49.338;8.794;2023-01-19T13:22:52;99448.69;;;4.53
63158;BMP280;49381;49.338;8.794;2023-01-19T13:25:31;99447.88;;;4.54
63158;BMP280;49381;49.338;8.794;2023-01-19T13:27:33;99449.56;;;4.57
63158;BMP280;49381;49.338;8.794;2023-01-19T13:30:03;99450.41;;;4.56